createdAt,value
2019-05-07T00:00:43.770Z,4.40
2019-05-07T00:01:42.314Z,4.80
2019-05-07T00:02:42.796Z,5.10
2019-05-07T00:03:42.267Z,4.80
2019-05-07T00:04:42.859Z,4.40
2019-05-07T00:05:42.787Z,4.90
2019-05-07T00:06:43.458Z,4.80
2019-05-07T00:07:42.542Z,4.10
2019-05-07T00:08:44.615Z,3.70
2019-05-07T00:09:43.098Z,3.20
2019-05-07T00:10:42.468Z,4.50
2019-05-07T00:11:42.611Z,6.00
2019-05-07T00:12:43.107Z,3.80
2019-05-07T00:13:44.087Z,4.80
2019-05-07T00:14:42.898Z,4.30
2019-05-07T00:15:42.036Z,4.40
2019-05-07T00:16:42.295Z,5.90
2019-05-07T00:17:42.890Z,6.60
2019-05-07T00:18:42.910Z,7.80
2019-05-07T00:19:43.155Z,8.00
2019-05-07T00:20:42.470Z,3.90
2019-05-07T00:21:42.437Z,4.40
2019-05-07T00:22:42.002Z,4.40
2019-05-07T00:23:43.293Z,5.20
2019-05-07T00:24:42.630Z,3.30
2019-05-07T00:25:42.305Z,3.50
2019-05-07T00:26:43.036Z,4.80
2019-05-07T00:27:42.730Z,4.60
2019-05-07T00:28:43.199Z,4.30
2019-05-07T00:29:42.958Z,4.40
2019-05-07T00:30:42.499Z,5.20
2019-05-07T00:31:42.123Z,4.70
2019-05-07T00:32:42.438Z,4.40
2019-05-07T00:33:43.302Z,3.20
2019-05-07T00:34:42.505Z,3.80
2019-05-07T00:35:42.923Z,4.80
2019-05-07T00:36:42.163Z,4.00
2019-05-07T00:37:43.103Z,3.80
2019-05-07T00:38:42.771Z,4.10
2019-05-07T00:39:42.482Z,4.10
2019-05-07T00:40:42.579Z,3.70
2019-05-07T00:41:42.725Z,4.60
2019-05-07T00:42:42.177Z,4.80
2019-05-07T00:43:42.870Z,4.20
2019-05-07T00:44:42.283Z,4.90
2019-05-07T00:45:42.200Z,3.90
2019-05-07T00:46:42.754Z,5.00
2019-05-07T00:47:42.565Z,4.90
2019-05-07T00:48:42.368Z,4.20
2019-05-07T00:49:42.595Z,4.70
2019-05-07T00:50:42.115Z,6.10
2019-05-07T00:51:42.519Z,4.50
2019-05-07T00:52:42.972Z,5.00
2019-05-07T00:53:42.424Z,3.50
2019-05-07T00:54:42.332Z,3.50
2019-05-07T00:55:42.360Z,3.70
2019-05-07T00:56:42.927Z,4.40
2019-05-07T00:57:42.856Z,5.40
2019-05-07T00:58:42.839Z,4.00
2019-05-07T00:59:42.937Z,5.80
2019-05-07T01:00:42.175Z,4.30
2019-05-07T01:01:43.202Z,5.00
2019-05-07T01:02:43.073Z,4.70
2019-05-07T01:03:42.509Z,4.60
2019-05-07T01:04:42.339Z,6.50
2019-05-07T01:05:43.259Z,3.90
2019-05-07T01:06:42.465Z,4.10
2019-05-07T01:07:42.106Z,4.20
2019-05-07T01:08:43.018Z,5.50
2019-05-07T01:09:43.041Z,4.00
2019-05-07T01:10:42.174Z,6.40
2019-05-07T01:11:42.885Z,4.10
2019-05-07T01:12:42.425Z,4.10
2019-05-07T01:13:43.130Z,5.60
2019-05-07T01:14:42.111Z,4.50
2019-05-07T01:15:42.936Z,4.50
2019-05-07T01:16:42.306Z,4.90
2019-05-07T01:17:42.598Z,4.30
2019-05-07T01:18:42.261Z,4.30
2019-05-07T01:19:42.389Z,3.80
2019-05-07T01:20:42.502Z,5.00
2019-05-07T01:21:43.213Z,5.30
2019-05-07T01:22:42.517Z,4.00
2019-05-07T01:23:42.818Z,4.00
2019-05-07T01:24:42.942Z,3.90
2019-05-07T01:25:43.034Z,5.00
2019-05-07T01:26:42.680Z,3.40
2019-05-07T01:27:42.784Z,4.80
2019-05-07T01:28:42.197Z,4.60
2019-05-07T01:29:43.055Z,4.40
2019-05-07T01:30:43.266Z,6.00
2019-05-07T01:31:43.103Z,4.20
2019-05-07T01:32:42.590Z,4.10
2019-05-07T01:33:42.437Z,4.10
2019-05-07T01:34:42.938Z,4.70
2019-05-07T01:35:42.413Z,4.10
2019-05-07T01:36:42.783Z,8.20
2019-05-07T01:37:42.282Z,3.60
2019-05-07T01:38:42.789Z,4.90
2019-05-07T01:39:42.324Z,5.60
2019-05-07T01:40:42.830Z,5.90
2019-05-07T01:41:42.227Z,3.30
2019-05-07T01:42:42.462Z,5.40
2019-05-07T01:43:42.882Z,4.80
2019-05-07T01:44:42.245Z,3.90
2019-05-07T01:45:48.773Z,3.50
2019-05-07T01:46:42.323Z,4.30
2019-05-07T01:47:42.612Z,4.10
2019-05-07T01:48:42.943Z,4.50
2019-05-07T01:49:42.432Z,5.00
2019-05-07T01:50:42.889Z,4.50
2019-05-07T01:51:42.455Z,4.10
2019-05-07T01:52:42.753Z,3.70
2019-05-07T01:53:43.038Z,3.90
2019-05-07T01:54:42.667Z,4.30
2019-05-07T01:55:42.886Z,3.90
2019-05-07T01:56:42.823Z,3.70
2019-05-07T01:57:42.318Z,4.90
2019-05-07T01:58:42.622Z,4.50
2019-05-07T01:59:42.837Z,7.00
2019-05-07T02:00:42.645Z,5.70
2019-05-07T02:01:42.956Z,4.00
2019-05-07T02:02:42.611Z,4.80
2019-05-07T02:03:42.357Z,5.30
2019-05-07T02:04:42.720Z,4.10
2019-05-07T02:05:42.524Z,5.30
2019-05-07T02:06:42.911Z,3.90
2019-05-07T02:07:42.905Z,4.30
2019-05-07T02:08:42.494Z,4.50
2019-05-07T02:09:42.567Z,3.40
2019-05-07T02:10:42.857Z,4.60
2019-05-07T02:11:42.395Z,3.70
2019-05-07T02:12:42.601Z,3.40
2019-05-07T02:13:42.406Z,4.70
2019-05-07T02:14:42.411Z,4.30
2019-05-07T02:15:46.797Z,5.30
2019-05-07T02:16:42.423Z,6.80
2019-05-07T02:17:42.973Z,6.80
2019-05-07T02:18:42.594Z,6.90
2019-05-07T02:19:42.604Z,6.20
2019-05-07T02:20:42.700Z,4.60
2019-05-07T02:21:42.535Z,7.30
2019-05-07T02:22:42.827Z,5.00
2019-05-07T02:23:42.723Z,4.70
2019-05-07T02:24:43.438Z,4.40
2019-05-07T02:25:42.469Z,3.30
2019-05-07T02:26:42.827Z,5.90
2019-05-07T02:27:42.488Z,4.80
2019-05-07T02:28:42.787Z,3.80
2019-05-07T02:29:43.061Z,4.10
2019-05-07T02:30:44.543Z,3.40
2019-05-07T02:31:44.086Z,3.50
2019-05-07T02:32:43.347Z,4.80
2019-05-07T02:33:43.377Z,4.30
2019-05-07T02:34:44.159Z,4.00
2019-05-07T02:35:43.923Z,3.80
2019-05-07T02:36:43.466Z,6.80
2019-05-07T02:37:50.831Z,5.10
2019-05-07T02:38:44.193Z,4.10
2019-05-07T02:39:44.389Z,6.10
2019-05-07T02:40:43.342Z,5.20
2019-05-07T02:41:44.005Z,4.10
2019-05-07T02:42:44.300Z,3.90
2019-05-07T02:43:43.077Z,4.00
2019-05-07T02:44:43.775Z,4.60
2019-05-07T02:45:43.982Z,6.60
2019-05-07T02:46:43.330Z,4.50
2019-05-07T02:47:43.694Z,3.40
2019-05-07T02:48:43.020Z,4.40
2019-05-07T02:49:43.837Z,4.10
2019-05-07T02:50:43.733Z,3.40
2019-05-07T02:51:43.753Z,5.20
2019-05-07T02:52:43.763Z,3.80
2019-05-07T02:53:43.186Z,5.40
2019-05-07T02:54:43.694Z,4.30
2019-05-07T02:55:43.502Z,6.70
2019-05-07T02:56:43.445Z,5.60
2019-05-07T02:57:43.548Z,5.90
2019-05-07T02:58:43.392Z,4.00
2019-05-07T02:59:44.033Z,3.90
2019-05-07T03:00:43.576Z,4.70
2019-05-07T03:01:43.389Z,3.80
2019-05-07T03:02:43.719Z,4.40
2019-05-07T03:03:44.884Z,4.30
2019-05-07T03:04:43.533Z,5.60
2019-05-07T03:05:43.399Z,6.60
2019-05-07T03:06:44.281Z,11.30
2019-05-07T03:07:42.982Z,10.40
2019-05-07T03:08:43.996Z,6.90
2019-05-07T03:09:43.313Z,4.60
2019-05-07T03:10:43.490Z,5.00
2019-05-07T03:11:43.497Z,3.80
2019-05-07T03:12:43.121Z,5.00
2019-05-07T03:13:43.355Z,4.10
2019-05-07T03:14:43.772Z,5.10
2019-05-07T03:15:43.542Z,3.20
2019-05-07T03:16:47.847Z,4.60
2019-05-07T03:17:43.155Z,4.10
2019-05-07T03:18:43.792Z,3.40
2019-05-07T03:19:43.191Z,4.20
2019-05-07T03:20:43.126Z,3.50
2019-05-07T03:21:44.069Z,3.60
2019-05-07T03:22:43.088Z,5.10
2019-05-07T03:23:43.040Z,4.40
2019-05-07T03:24:43.567Z,6.60
2019-05-07T03:25:43.198Z,5.60
2019-05-07T03:26:43.436Z,4.40
2019-05-07T03:27:43.249Z,5.20
2019-05-07T03:28:42.832Z,3.90
2019-05-07T03:29:44.163Z,4.00
2019-05-07T03:30:45.609Z,3.90
2019-05-07T03:31:46.675Z,4.30
2019-05-07T03:32:47.425Z,3.40
2019-05-07T03:33:47.228Z,3.50
2019-05-07T03:34:46.586Z,3.30
2019-05-07T03:35:46.356Z,4.40
2019-05-07T03:36:47.537Z,3.10
2019-05-07T03:37:44.184Z,3.70
2019-05-07T03:38:43.904Z,4.40
2019-05-07T03:39:43.440Z,4.50
2019-05-07T03:40:44.793Z,3.60
2019-05-07T03:41:43.455Z,3.90
2019-05-07T03:42:44.022Z,3.40
2019-05-07T03:43:43.586Z,4.40
2019-05-07T03:44:44.539Z,4.00
2019-05-07T03:45:43.467Z,4.80
2019-05-07T03:46:54.550Z,4.20
2019-05-07T03:47:43.941Z,3.90
2019-05-07T03:48:44.084Z,4.50
2019-05-07T03:49:43.124Z,3.30
2019-05-07T03:50:43.411Z,4.60
2019-05-07T03:51:44.170Z,3.90
2019-05-07T03:52:43.156Z,3.60
2019-05-07T03:53:43.889Z,4.10
2019-05-07T03:54:43.263Z,4.00
2019-05-07T03:55:44.709Z,3.30
2019-05-07T03:56:43.635Z,4.30
2019-05-07T03:57:43.923Z,4.60
2019-05-07T03:58:43.649Z,4.90
2019-05-07T03:59:43.442Z,3.30
2019-05-07T04:00:44.266Z,3.70
2019-05-07T04:01:43.231Z,3.60
2019-05-07T04:02:43.891Z,4.70
2019-05-07T04:03:44.725Z,4.60
2019-05-07T04:04:43.418Z,3.50
2019-05-07T04:05:43.568Z,4.30
2019-05-07T04:06:43.575Z,5.00
2019-05-07T04:07:43.389Z,6.90
2019-05-07T04:08:43.542Z,9.60
2019-05-07T04:09:43.739Z,9.00
2019-05-07T04:10:44.337Z,7.50
2019-05-07T04:11:43.428Z,6.00
2019-05-07T04:12:44.290Z,3.90
2019-05-07T04:13:44.177Z,4.20
2019-05-07T04:14:43.436Z,5.40
2019-05-07T04:15:43.989Z,5.70
2019-05-07T04:16:44.090Z,5.30
2019-05-07T04:17:43.203Z,3.70
2019-05-07T04:18:43.996Z,5.30
2019-05-07T04:19:44.010Z,6.10
2019-05-07T04:20:43.799Z,5.40
2019-05-07T04:21:43.575Z,4.60
2019-05-07T04:22:43.516Z,6.10
2019-05-07T04:23:43.873Z,6.40
2019-05-07T04:24:43.114Z,5.00
2019-05-07T04:25:43.675Z,4.20
2019-05-07T04:26:43.132Z,5.90
2019-05-07T04:27:46.920Z,5.60
2019-05-07T04:28:43.737Z,7.00
2019-05-07T04:29:43.161Z,12.20
2019-05-07T04:30:43.754Z,16.20
2019-05-07T04:31:43.957Z,16.30
2019-05-07T04:32:43.469Z,13.60
2019-05-07T04:33:43.908Z,11.80
2019-05-07T04:34:44.451Z,8.20
2019-05-07T04:35:43.640Z,7.30
2019-05-07T04:36:43.861Z,6.60
2019-05-07T04:37:43.178Z,5.00
2019-05-07T04:38:43.967Z,6.00
2019-05-07T04:39:43.201Z,3.30
2019-05-07T04:40:43.695Z,4.40
2019-05-07T04:41:43.645Z,3.80
2019-05-07T04:42:43.209Z,3.90
2019-05-07T04:43:43.705Z,3.60
2019-05-07T04:44:43.823Z,3.60
2019-05-07T04:45:43.666Z,4.40
2019-05-07T04:46:47.118Z,3.10
2019-05-07T04:47:47.558Z,3.80
2019-05-07T04:48:44.132Z,3.50
2019-05-07T04:49:43.723Z,4.40
2019-05-07T04:50:47.335Z,3.80
2019-05-07T04:51:43.575Z,5.60
2019-05-07T04:52:43.846Z,4.80
2019-05-07T04:53:43.297Z,4.80
2019-05-07T04:54:43.855Z,4.20
2019-05-07T04:55:43.322Z,5.00
2019-05-07T04:56:43.839Z,4.40
2019-05-07T04:57:43.965Z,4.90
2019-05-07T04:58:43.605Z,3.70
2019-05-07T04:59:43.300Z,4.10
2019-05-07T05:00:43.492Z,3.20
2019-05-07T05:01:43.715Z,3.60
2019-05-07T05:02:43.630Z,3.00
2019-05-07T05:03:43.837Z,5.90
2019-05-07T05:04:44.038Z,3.30
2019-05-07T05:05:43.751Z,4.20
2019-05-07T05:06:43.343Z,5.10
2019-05-07T05:07:43.345Z,4.40
2019-05-07T05:08:43.773Z,5.20
2019-05-07T05:09:43.361Z,4.10
2019-05-07T05:10:43.584Z,3.90
2019-05-07T05:11:44.005Z,3.70
2019-05-07T05:12:43.369Z,4.30
2019-05-07T05:13:44.619Z,3.50
2019-05-07T05:14:44.015Z,3.50
2019-05-07T05:15:43.385Z,5.40
2019-05-07T05:16:43.390Z,4.10
2019-05-07T05:17:50.529Z,4.20
2019-05-07T05:18:43.402Z,4.10
2019-05-07T05:19:43.963Z,4.60
2019-05-07T05:20:43.417Z,3.80
2019-05-07T05:21:43.419Z,5.20
2019-05-07T05:22:43.454Z,3.90
2019-05-07T05:23:43.439Z,8.00
2019-05-07T05:24:43.438Z,5.10
2019-05-07T05:25:43.444Z,5.50
2019-05-07T05:26:43.449Z,4.40
2019-05-07T05:27:43.461Z,5.70
2019-05-07T05:28:43.466Z,5.70
2019-05-07T05:29:43.466Z,4.60
2019-05-07T05:30:43.471Z,5.00
2019-05-07T05:31:43.493Z,5.80
2019-05-07T05:32:43.486Z,4.70
2019-05-07T05:33:43.487Z,4.60
2019-05-07T05:34:43.493Z,7.20
2019-05-07T05:35:43.509Z,4.60
2019-05-07T05:36:43.508Z,3.30
2019-05-07T05:37:43.510Z,3.90
2019-05-07T05:38:43.521Z,3.50
2019-05-07T05:39:43.527Z,4.00
2019-05-07T05:40:43.533Z,4.70
2019-05-07T05:41:43.536Z,5.50
2019-05-07T05:42:43.548Z,4.30
2019-05-07T05:43:43.545Z,5.60
2019-05-07T05:44:43.556Z,4.90
2019-05-07T05:45:43.563Z,5.50
2019-05-07T05:46:43.570Z,8.40
2019-05-07T05:47:44.991Z,4.10
2019-05-07T05:48:43.578Z,4.00
2019-05-07T05:49:43.587Z,4.20
2019-05-07T05:50:43.592Z,4.10
2019-05-07T05:51:43.598Z,4.00
2019-05-07T05:52:43.613Z,4.00
2019-05-07T05:53:43.611Z,3.70
2019-05-07T05:54:43.611Z,3.30
2019-05-07T05:55:43.617Z,4.80
2019-05-07T05:56:43.628Z,4.00
2019-05-07T05:57:43.633Z,3.90
2019-05-07T05:58:43.636Z,3.20
2019-05-07T05:59:49.064Z,3.90
2019-05-07T06:00:43.651Z,3.60
2019-05-07T06:01:43.657Z,4.10
2019-05-07T06:02:44.183Z,4.40
2019-05-07T06:03:43.670Z,3.20
2019-05-07T06:04:43.675Z,3.20
2019-05-07T06:05:43.679Z,4.80
2019-05-07T06:06:43.692Z,4.10
2019-05-07T06:07:43.694Z,4.90
2019-05-07T06:08:43.701Z,3.70
2019-05-07T06:09:43.705Z,3.60
2019-05-07T06:10:43.710Z,3.50
2019-05-07T06:11:43.718Z,3.70
2019-05-07T06:12:43.733Z,4.00
2019-05-07T06:13:43.728Z,3.50
2019-05-07T06:14:43.735Z,4.70
2019-05-07T06:15:43.742Z,3.40
2019-05-07T06:16:43.747Z,3.70
2019-05-07T06:17:43.758Z,4.80
2019-05-07T06:18:43.764Z,4.90
2019-05-07T06:19:43.770Z,3.60
2019-05-07T06:20:43.777Z,3.50
2019-05-07T06:21:43.781Z,4.00
2019-05-07T06:22:43.790Z,4.20
2019-05-07T06:23:43.794Z,5.00
2019-05-07T06:24:43.801Z,3.00
2019-05-07T06:25:43.814Z,3.50
2019-05-07T06:26:43.815Z,4.30
2019-05-07T06:27:43.821Z,4.20
2019-05-07T06:28:43.824Z,3.30
2019-05-07T06:29:43.834Z,4.10
2019-05-07T06:30:43.839Z,3.10
2019-05-07T06:31:43.845Z,3.10
2019-05-07T06:32:43.858Z,4.00
2019-05-07T06:33:43.856Z,2.80
2019-05-07T06:34:44.738Z,4.10
2019-05-07T06:35:43.875Z,4.10
2019-05-07T06:36:43.876Z,3.60
2019-05-07T06:37:43.887Z,2.60
2019-05-07T06:38:43.891Z,3.00
2019-05-07T06:39:43.899Z,3.30
2019-05-07T06:40:43.903Z,2.80
2019-05-07T06:41:43.912Z,3.70
2019-05-07T06:42:43.918Z,4.40
2019-05-07T06:43:43.924Z,3.60
2019-05-07T06:44:43.929Z,3.10
2019-05-07T06:45:43.936Z,4.40
2019-05-07T06:46:43.944Z,4.40
2019-05-07T06:47:43.951Z,2.70
2019-05-07T06:48:46.247Z,4.50
2019-05-07T06:49:43.961Z,3.60
2019-05-07T06:50:43.968Z,2.60
2019-05-07T06:51:43.974Z,4.40
2019-05-07T06:52:43.984Z,4.50
2019-05-07T06:53:43.985Z,3.30
2019-05-07T06:54:43.991Z,2.90
2019-05-07T06:55:44.001Z,2.90
2019-05-07T06:56:44.017Z,2.90
2019-05-07T06:57:44.019Z,5.00
2019-05-07T06:58:44.015Z,3.90
2019-05-07T06:59:44.024Z,3.20
2019-05-07T07:00:44.027Z,3.20
2019-05-07T07:01:44.036Z,3.70
2019-05-07T07:02:44.040Z,4.50
2019-05-07T07:03:44.048Z,3.70
2019-05-07T07:04:44.053Z,4.00
2019-05-07T07:05:44.059Z,4.30
2019-05-07T07:06:44.067Z,3.30
2019-05-07T07:07:44.076Z,2.60
2019-05-07T07:08:44.083Z,2.50
2019-05-07T07:09:44.089Z,2.70
2019-05-07T07:10:44.095Z,3.90
2019-05-07T07:11:44.152Z,2.70
2019-05-07T07:12:44.115Z,3.60
2019-05-07T07:13:44.117Z,2.80
2019-05-07T07:14:44.122Z,5.70
2019-05-07T07:15:44.133Z,3.70
2019-05-07T07:16:44.135Z,3.10
2019-05-07T07:17:44.140Z,3.20
2019-05-07T07:18:51.818Z,3.70
2019-05-07T07:19:44.152Z,3.90
2019-05-07T07:20:44.158Z,3.90
2019-05-07T07:21:44.170Z,2.90
2019-05-07T07:22:44.175Z,2.80
2019-05-07T07:23:44.185Z,3.10
2019-05-07T07:24:44.184Z,3.10
2019-05-07T07:25:44.192Z,4.50
2019-05-07T07:26:44.204Z,3.20
2019-05-07T07:27:44.206Z,4.40
2019-05-07T07:28:44.213Z,3.70
2019-05-07T07:29:45.061Z,2.70
2019-05-07T07:30:44.228Z,6.00
2019-05-07T07:31:44.234Z,3.20
2019-05-07T07:32:44.240Z,3.90
2019-05-07T07:33:44.244Z,4.70
2019-05-07T07:34:44.251Z,4.30
2019-05-07T07:35:44.257Z,4.20
2019-05-07T07:36:44.266Z,4.40
2019-05-07T07:37:44.278Z,2.50
2019-05-07T07:38:44.277Z,3.00
2019-05-07T07:39:44.288Z,3.70
2019-05-07T07:40:44.299Z,2.80
2019-05-07T07:41:44.301Z,3.60
2019-05-07T07:42:44.313Z,5.40
2019-05-07T07:43:44.314Z,3.30
2019-05-07T07:44:44.316Z,3.50
2019-05-07T07:45:44.325Z,4.10
2019-05-07T07:46:44.338Z,3.10
2019-05-07T07:47:44.338Z,2.90
2019-05-07T07:48:44.347Z,4.20
2019-05-07T07:49:44.352Z,4.60
2019-05-07T07:50:44.361Z,6.10
2019-05-07T07:51:45.626Z,2.60
2019-05-07T07:52:44.378Z,5.40
2019-05-07T07:53:44.380Z,2.90
2019-05-07T07:54:44.385Z,3.40
2019-05-07T07:55:44.395Z,2.70
2019-05-07T07:56:52.703Z,2.90
2019-05-07T07:57:44.408Z,3.40
2019-05-07T07:58:44.412Z,2.70
2019-05-07T07:59:44.422Z,3.10
2019-05-07T08:00:44.430Z,4.00
2019-05-07T08:01:44.436Z,2.70
2019-05-07T08:02:44.438Z,3.40
2019-05-07T08:03:44.446Z,3.50
2019-05-07T08:04:44.452Z,2.70
2019-05-07T08:05:44.464Z,2.90
2019-05-07T08:06:44.466Z,3.20
2019-05-07T08:07:44.473Z,4.10
2019-05-07T08:08:44.482Z,2.80
2019-05-07T08:09:44.493Z,2.40
2019-05-07T08:10:44.494Z,3.20
2019-05-07T08:11:44.504Z,2.20
2019-05-07T08:12:44.510Z,3.40
2019-05-07T08:13:44.519Z,2.50
2019-05-07T08:14:44.524Z,3.70
2019-05-07T08:15:44.537Z,2.20
2019-05-07T08:16:44.541Z,3.40
2019-05-07T08:17:44.543Z,2.90
2019-05-07T08:18:44.552Z,3.30
2019-05-07T08:19:44.563Z,2.70
2019-05-07T08:20:44.570Z,2.80
2019-05-07T08:21:44.577Z,2.30
2019-05-07T08:22:44.583Z,2.20
2019-05-07T08:23:44.594Z,2.20
2019-05-07T08:24:44.595Z,2.80
2019-05-07T08:25:44.607Z,3.70
2019-05-07T08:26:44.614Z,3.00
2019-05-07T08:27:44.618Z,2.60
2019-05-07T08:28:44.631Z,2.00
2019-05-07T08:29:44.637Z,2.10
2019-05-07T08:30:44.643Z,4.80
2019-05-07T08:31:44.653Z,2.80
2019-05-07T08:32:44.658Z,3.30
2019-05-07T08:33:44.668Z,2.70
2019-05-07T08:34:44.673Z,3.80
2019-05-07T08:35:44.680Z,5.30
2019-05-07T08:36:44.691Z,2.90
2019-05-07T08:37:44.696Z,2.90
2019-05-07T08:38:44.703Z,2.80
2019-05-07T08:39:44.710Z,3.30
2019-05-07T08:40:44.716Z,3.40
2019-05-07T08:41:44.725Z,5.10
2019-05-07T08:42:44.735Z,2.30
2019-05-07T08:43:44.740Z,3.60
2019-05-07T08:44:44.748Z,2.10
2019-05-07T08:45:44.760Z,2.40
2019-05-07T08:46:44.767Z,2.10
2019-05-07T08:47:44.772Z,2.50
2019-05-07T08:48:44.783Z,2.80
2019-05-07T08:49:44.804Z,2.60
2019-05-07T08:50:44.801Z,2.70
2019-05-07T08:51:44.805Z,2.90
2019-05-07T08:52:44.815Z,2.20
2019-05-07T08:53:44.820Z,3.70
2019-05-07T08:54:44.834Z,2.30
2019-05-07T08:55:44.837Z,2.30
2019-05-07T08:56:44.852Z,3.00
2019-05-07T08:57:45.982Z,2.50
2019-05-07T08:58:44.862Z,2.30
2019-05-07T08:59:57.453Z,3.00
2019-05-07T09:00:44.881Z,2.90
2019-05-07T09:01:44.888Z,4.00
2019-05-07T09:02:44.895Z,4.00
2019-05-07T09:03:44.914Z,2.50
2019-05-07T09:04:44.912Z,2.30
2019-05-07T09:05:44.921Z,2.50
2019-05-07T09:06:44.930Z,2.40
2019-05-07T09:07:44.939Z,2.70
2019-05-07T09:08:44.946Z,2.50
2019-05-07T09:09:44.958Z,3.00
2019-05-07T09:10:44.968Z,4.00
2019-05-07T09:11:44.978Z,3.10
2019-05-07T09:12:44.985Z,2.40
2019-05-07T09:13:44.992Z,2.40
2019-05-07T09:14:45.001Z,2.80
2019-05-07T09:15:45.013Z,3.10
2019-05-07T09:16:45.018Z,2.90
2019-05-07T09:17:45.024Z,10.40
2019-05-07T09:18:45.034Z,3.60
2019-05-07T09:19:51.534Z,2.60
2019-05-07T09:20:45.051Z,5.70
2019-05-07T09:21:45.061Z,4.40
2019-05-07T09:22:45.072Z,2.90
2019-05-07T09:23:45.080Z,3.00
2019-05-07T09:24:45.099Z,2.90
2019-05-07T09:25:45.098Z,2.40
2019-05-07T09:26:45.107Z,2.50
2019-05-07T09:27:45.117Z,3.00
2019-05-07T09:28:45.126Z,3.40
2019-05-07T09:29:45.142Z,2.30
2019-05-07T09:30:45.145Z,2.80
2019-05-07T09:31:45.159Z,2.40
2019-05-07T09:32:45.163Z,2.00
2019-05-07T09:33:45.172Z,2.20
2019-05-07T09:34:45.182Z,3.70
2019-05-07T09:35:45.196Z,2.60
2019-05-07T09:36:45.201Z,4.80
2019-05-07T09:37:45.213Z,1.90
2019-05-07T09:38:56.108Z,3.10
2019-05-07T09:39:45.235Z,2.10
2019-05-07T09:40:45.251Z,2.10
2019-05-07T09:41:45.252Z,2.80
2019-05-07T09:42:45.263Z,5.10
2019-05-07T09:43:45.282Z,2.00
2019-05-07T09:44:45.289Z,4.00
2019-05-07T09:45:45.291Z,3.60
2019-05-07T09:46:46.707Z,2.70
2019-05-07T09:47:45.310Z,2.00
2019-05-07T09:48:45.317Z,2.30
2019-05-07T09:49:45.330Z,2.10
2019-05-07T09:50:45.339Z,2.70
2019-05-07T09:51:45.354Z,2.00
2019-05-07T09:52:45.355Z,1.80
2019-05-07T09:53:45.366Z,3.70
2019-05-07T09:54:45.380Z,2.00
2019-05-07T09:55:45.395Z,2.40
2019-05-07T09:56:45.401Z,3.20
2019-05-07T09:57:45.410Z,2.10
2019-05-07T09:58:45.417Z,2.50
2019-05-07T09:59:45.431Z,2.20
2019-05-07T10:00:45.438Z,2.10
2019-05-07T10:01:45.452Z,2.00
2019-05-07T10:02:45.465Z,1.80
2019-05-07T10:03:45.469Z,2.30
2019-05-07T10:04:45.487Z,2.30
2019-05-07T10:05:45.493Z,8.90
2019-05-07T10:06:45.500Z,3.30
2019-05-07T10:07:45.513Z,2.10
2019-05-07T10:08:45.527Z,3.30
2019-05-07T10:09:45.534Z,3.50
2019-05-07T10:10:45.543Z,2.20
2019-05-07T10:11:45.554Z,2.00
2019-05-07T10:12:45.570Z,2.10
2019-05-07T10:13:45.574Z,2.10
2019-05-07T10:14:45.585Z,2.00
2019-05-07T10:15:45.602Z,2.40
2019-05-07T10:16:45.609Z,1.90
2019-05-07T10:17:45.623Z,1.90
2019-05-07T10:18:45.634Z,2.30
2019-05-07T10:19:45.641Z,2.60
2019-05-07T10:20:45.653Z,2.00
2019-05-07T10:21:45.663Z,2.70
2019-05-07T10:22:45.674Z,2.10
2019-05-07T10:23:45.686Z,2.50
2019-05-07T10:24:45.698Z,2.30
2019-05-07T10:25:45.707Z,1.90
2019-05-07T10:26:45.722Z,1.60
2019-05-07T10:27:45.730Z,2.70
2019-05-07T10:28:45.745Z,3.20
2019-05-07T10:29:45.755Z,1.90
2019-05-07T10:30:45.765Z,2.20
2019-05-07T10:31:45.776Z,1.90
2019-05-07T10:32:45.796Z,1.80
2019-05-07T10:33:45.798Z,2.00
2019-05-07T10:34:45.817Z,2.70
2019-05-07T10:35:45.823Z,3.50
2019-05-07T10:36:45.838Z,1.80
2019-05-07T10:37:45.845Z,1.70
2019-05-07T10:38:45.860Z,3.10
2019-05-07T10:39:45.870Z,2.00
2019-05-07T10:40:45.881Z,2.90
2019-05-07T10:41:45.898Z,4.00
2019-05-07T10:42:45.907Z,2.30
2019-05-07T10:43:45.920Z,2.20
2019-05-07T10:44:45.928Z,1.90
2019-05-07T10:45:45.941Z,3.20
2019-05-07T10:46:45.954Z,2.80
2019-05-07T10:47:45.969Z,2.90
2019-05-07T10:48:45.976Z,2.50
2019-05-07T10:49:45.987Z,2.50
2019-05-07T10:50:46.006Z,2.40
2019-05-07T10:51:46.013Z,2.70
2019-05-07T10:52:46.029Z,2.90
2019-05-07T10:53:46.041Z,5.40
2019-05-07T10:54:56.695Z,2.60
2019-05-07T10:55:46.064Z,2.30
2019-05-07T10:56:46.076Z,4.40
2019-05-07T10:57:46.086Z,2.20
2019-05-07T10:58:46.098Z,2.60
2019-05-07T10:59:46.111Z,1.90
2019-05-07T11:00:46.127Z,2.10
2019-05-07T11:01:46.139Z,2.30
2019-05-07T11:02:46.151Z,2.20
2019-05-07T11:03:46.165Z,1.70
2019-05-07T11:04:46.178Z,3.00
2019-05-07T11:05:46.192Z,3.30
2019-05-07T11:06:46.196Z,1.90
2019-05-07T11:07:46.212Z,3.80
2019-05-07T11:08:46.225Z,1.90
2019-05-07T11:09:46.237Z,4.30
2019-05-07T11:10:46.258Z,2.00
2019-05-07T11:11:46.260Z,1.90
2019-05-07T11:12:46.273Z,2.30
2019-05-07T11:13:46.289Z,1.80
2019-05-07T11:14:46.299Z,2.10
2019-05-07T11:15:46.317Z,2.30
2019-05-07T11:16:46.324Z,2.30
2019-05-07T11:17:46.337Z,1.80
2019-05-07T11:18:46.355Z,2.50
2019-05-07T11:19:46.367Z,1.90
2019-05-07T11:20:50.331Z,1.90
2019-05-07T11:21:46.392Z,2.90
2019-05-07T11:22:46.405Z,2.30
2019-05-07T11:23:46.422Z,3.80
2019-05-07T11:24:46.430Z,1.90
2019-05-07T11:25:46.445Z,2.80
2019-05-07T11:26:46.459Z,3.00
2019-05-07T11:27:46.474Z,2.00
2019-05-07T11:28:46.486Z,1.80
2019-05-07T11:29:46.497Z,2.80
2019-05-07T11:30:46.508Z,2.60
2019-05-07T11:31:46.527Z,4.80
2019-05-07T11:32:46.539Z,3.00
2019-05-07T11:33:46.558Z,1.90
2019-05-07T11:34:46.566Z,3.10
2019-05-07T11:35:46.577Z,1.90
2019-05-07T11:36:46.615Z,3.10
2019-05-07T11:37:46.603Z,1.70
2019-05-07T11:38:46.624Z,2.00
2019-05-07T11:39:46.634Z,2.40
2019-05-07T11:40:46.644Z,4.10
2019-05-07T11:41:46.655Z,1.80
2019-05-07T11:42:46.669Z,2.50
2019-05-07T11:43:46.688Z,1.70
2019-05-07T11:44:46.700Z,1.90
2019-05-07T11:45:46.709Z,2.00
2019-05-07T11:46:46.728Z,1.80
2019-05-07T11:47:46.737Z,1.80
2019-05-07T11:48:46.751Z,3.00
2019-05-07T11:49:46.765Z,2.80
2019-05-07T11:50:59.653Z,1.90
2019-05-07T11:51:46.796Z,2.10
2019-05-07T11:52:46.808Z,2.10
2019-05-07T11:53:46.822Z,2.40
2019-05-07T11:54:46.832Z,1.60
2019-05-07T11:55:46.846Z,2.10
2019-05-07T11:56:46.861Z,2.20
2019-05-07T11:57:46.885Z,3.40
2019-05-07T11:58:46.888Z,2.10
2019-05-07T11:59:46.902Z,3.50
2019-05-07T12:00:46.922Z,3.30
2019-05-07T12:01:47.990Z,2.10
2019-05-07T12:02:47.310Z,3.50
2019-05-07T12:03:46.963Z,2.10
2019-05-07T12:04:46.975Z,2.00
2019-05-07T12:05:46.990Z,2.90
2019-05-07T12:06:47.002Z,2.50
2019-05-07T12:07:47.018Z,2.40
2019-05-07T12:08:51.856Z,4.40
2019-05-07T12:09:47.050Z,2.20
2019-05-07T12:10:47.061Z,2.10
2019-05-07T12:11:47.073Z,2.10
2019-05-07T12:12:47.089Z,3.70
2019-05-07T12:13:47.105Z,2.70
2019-05-07T12:14:47.120Z,2.10
2019-05-07T12:15:47.135Z,2.90
2019-05-07T12:16:47.153Z,1.90
2019-05-07T12:17:47.160Z,2.50
2019-05-07T12:18:47.177Z,2.10
2019-05-07T12:19:47.196Z,2.70
2019-05-07T12:20:47.207Z,1.70
2019-05-07T12:21:47.221Z,2.50
2019-05-07T12:22:47.243Z,2.40
2019-05-07T12:23:47.249Z,1.80
2019-05-07T12:24:47.264Z,1.70
2019-05-07T12:25:47.280Z,2.50
2019-05-07T12:26:47.297Z,2.30
2019-05-07T12:27:47.314Z,2.60
2019-05-07T12:28:47.323Z,2.20
2019-05-07T12:29:47.337Z,3.50
2019-05-07T12:30:47.353Z,2.40
2019-05-07T12:31:47.385Z,1.70
2019-05-07T12:32:47.381Z,3.50
2019-05-07T12:33:47.398Z,1.80
2019-05-07T12:34:47.420Z,2.00
2019-05-07T12:35:47.430Z,3.30
2019-05-07T12:36:47.446Z,2.50
2019-05-07T12:37:49.544Z,2.30
2019-05-07T12:38:47.476Z,3.40
2019-05-07T12:39:47.487Z,2.50
2019-05-07T12:40:47.506Z,2.00
2019-05-07T12:41:47.523Z,2.00
2019-05-07T12:42:47.533Z,2.40
2019-05-07T12:43:47.547Z,2.30
2019-05-07T12:44:47.561Z,5.50
2019-05-07T12:45:47.577Z,6.40
2019-05-07T12:46:47.595Z,2.60
2019-05-07T12:47:47.612Z,3.40
2019-05-07T12:48:47.628Z,2.20
2019-05-07T12:49:47.635Z,2.50
2019-05-07T12:50:47.651Z,2.60
2019-05-07T12:51:47.670Z,2.90
2019-05-07T12:52:47.683Z,2.90
2019-05-07T12:53:47.694Z,3.00
2019-05-07T12:54:47.711Z,3.40
2019-05-07T12:55:47.729Z,1.90
2019-05-07T12:56:47.744Z,2.70
2019-05-07T12:57:47.761Z,2.40
2019-05-07T12:58:47.771Z,3.00
2019-05-07T12:59:49.636Z,2.30
2019-05-07T13:00:47.805Z,2.70
2019-05-07T13:01:47.818Z,2.30
2019-05-07T13:02:47.839Z,2.10
2019-05-07T13:03:47.848Z,2.40
2019-05-07T13:04:47.865Z,3.50
2019-05-07T13:05:47.880Z,2.90
2019-05-07T13:06:47.899Z,3.00
2019-05-07T13:07:47.918Z,2.40
2019-05-07T13:08:47.933Z,2.00
2019-05-07T13:09:47.959Z,3.40
2019-05-07T13:10:47.963Z,2.30
2019-05-07T13:11:47.976Z,2.70
2019-05-07T13:12:47.990Z,3.10
2019-05-07T13:13:48.011Z,3.30
2019-05-07T13:14:48.022Z,2.10
2019-05-07T13:15:48.047Z,1.70
2019-05-07T13:16:48.052Z,2.00
2019-05-07T13:17:48.072Z,2.10
2019-05-07T13:18:48.090Z,5.00